sensor_id;sensor_type;location;lat;lon;timestamp;P1;durP1;ratioP1;P2;durP2;ratioP2
65275;SDS011;51875;49.994;14.052;2023-02-04T00:01:14;2.13;;;0.55;;
65275;SDS011;51875;49.994;14.052;2023-02-04T00:02:30;1.23;;;0.43;;
65275;SDS011;51875;49.994;14.052;2023-02-04T00:03:46;0.93;;;0.40;;
65275;SDS011;51875;49.994;14.052;2023-02-04T00:05:01;1.45;;;0.38;;
65275;SDS011;51875;49.994;14.052;2023-02-04T00:06:17;1.58;;;0.40;;
65275;SDS011;51875;49.994;14.052;2023-02-04T00:07:33;0.75;;;0.45;;
65275;SDS011;51875;49.994;14.052;2023-02-04T00:08:49;0.43;;;0.43;;
65275;SDS011;51875;49.994;14.052;2023-02-04T00:10:05;2.00;;;0.50;;
65275;SDS011;51875;49.994;14.052;2023-02-04T00:11:21;3.70;;;0.40;;
65275;SDS011;51875;49.994;14.052;2023-02-04T00:12:37;3.35;;;1.20;;
65275;SDS011;51875;49.994;14.052;2023-02-04T00:13:52;0.52;;;0.32;;
65275;SDS011;51875;49.994;14.052;2023-02-04T00:15:08;0.50;;;0.45;;
65275;SDS011;51875;49.994;14.052;2023-02-04T00:16:24;5.93;;;0.70;;
65275;SDS011;51875;49.994;14.052;2023-02-04T00:17:40;0.32;;;0.25;;
65275;SDS011;51875;49.994;14.052;2023-02-04T00:18:56;1.15;;;0.60;;
65275;SDS011;51875;49.994;14.052;2023-02-04T00:20:11;1.23;;;0.60;;
65275;SDS011;51875;49.994;14.052;2023-02-04T00:21:27;1.67;;;0.60;;
65275;SDS011;51875;49.994;14.052;2023-02-04T00:22:43;1.05;;;0.45;;
65275;SDS011;51875;49.994;14.052;2023-02-04T00:23:58;3.38;;;0.50;;
65275;SDS011;51875;49.994;14.052;2023-02-04T00:25:14;1.02;;;0.60;;
65275;SDS011;51875;49.994;14.052;2023-02-04T00:26:29;1.00;;;0.50;;
65275;SDS011;51875;49.994;14.052;2023-02-04T00:27:45;0.22;;;0.22;;
65275;SDS011;51875;49.994;14.052;2023-02-04T00:29:01;3.05;;;0.40;;
65275;SDS011;51875;49.994;14.052;2023-02-04T00:30:16;1.60;;;0.38;;
65275;SDS011;51875;49.994;14.052;2023-02-04T00:31:32;1.55;;;0.50;;
65275;SDS011;51875;49.994;14.052;2023-02-04T00:32:47;0.88;;;0.47;;
65275;SDS011;51875;49.994;14.052;2023-02-04T00:34:05;3.60;;;0.40;;
65275;SDS011;51875;49.994;14.052;2023-02-04T00:35:21;1.50;;;0.50;;
65275;SDS011;51875;49.994;14.052;2023-02-04T00:36:37;0.10;;;0.10;;
65275;SDS011;51875;49.994;14.052;2023-02-04T00:37:53;1.08;;;0.55;;
65275;SDS011;51875;49.994;14.052;2023-02-04T00:39:09;4.05;;;0.68;;
65275;SDS011;51875;49.994;14.052;2023-02-04T00:40:24;1.13;;;0.40;;
65275;SDS011;51875;49.994;14.052;2023-02-04T00:41:40;1.60;;;0.28;;
65275;SDS011;51875;49.994;14.052;2023-02-04T00:42:56;1.05;;;0.20;;
65275;SDS011;51875;49.994;14.052;2023-02-04T00:44:11;0.20;;;0.20;;
65275;SDS011;51875;49.994;14.052;2023-02-04T00:45:28;0.98;;;0.40;;
65275;SDS011;51875;49.994;14.052;2023-02-04T00:46:43;0.82;;;0.50;;
65275;SDS011;51875;49.994;14.052;2023-02-04T00:47:59;0.30;;;0.30;;
65275;SDS011;51875;49.994;14.052;2023-02-04T00:49:15;0.00;;;0.00;;
65275;SDS011;51875;49.994;14.052;2023-02-04T00:50:30;0.63;;;0.20;;
65275;SDS011;51875;49.994;14.052;2023-02-04T00:51:46;0.60;;;0.47;;
65275;SDS011;51875;49.994;14.052;2023-02-04T00:53:02;0.10;;;0.10;;
65275;SDS011;51875;49.994;14.052;2023-02-04T00:54:18;0.30;;;0.17;;
65275;SDS011;51875;49.994;14.052;2023-02-04T00:55:34;0.10;;;0.10;;
65275;SDS011;51875;49.994;14.052;2023-02-04T00:56:50;0.20;;;0.10;;
65275;SDS011;51875;49.994;14.052;2023-02-04T00:58:05;0.10;;;0.10;;
65275;SDS011;51875;49.994;14.052;2023-02-04T00:59:21;0.20;;;0.17;;
65275;SDS011;51875;49.994;14.052;2023-02-04T01:00:36;0.32;;;0.10;;
65275;SDS011;51875;49.994;14.052;2023-02-04T01:01:52;1.45;;;0.20;;
65275;SDS011;51875;49.994;14.052;2023-02-04T01:03:08;0.30;;;0.20;;
65275;SDS011;51875;49.994;14.052;2023-02-04T01:04:23;0.57;;;0.10;;
65275;SDS011;51875;49.994;14.052;2023-02-04T01:05:40;2.92;;;0.25;;
65275;SDS011;51875;49.994;14.052;2023-02-04T01:06:56;0.20;;;0.10;;
65275;SDS011;51875;49.994;14.052;2023-02-04T01:08:11;0.25;;;0.25;;
65275;SDS011;51875;49.994;14.052;2023-02-04T01:09:27;0.20;;;0.20;;
65275;SDS011;51875;49.994;14.052;2023-02-04T01:10:42;0.03;;;0.03;;
65275;SDS011;51875;49.994;14.052;2023-02-04T01:11:58;0.00;;;0.00;;
65275;SDS011;51875;49.994;14.052;2023-02-04T01:13:13;0.38;;;0.22;;
65275;SDS011;51875;49.994;14.052;2023-02-04T01:14:29;0.85;;;0.20;;
65275;SDS011;51875;49.994;14.052;2023-02-04T01:15:45;0.20;;;0.17;;
65275;SDS011;51875;49.994;14.052;2023-02-04T01:17:01;0.10;;;0.10;;
65275;SDS011;51875;49.994;14.052;2023-02-04T01:18:17;0.10;;;0.10;;
65275;SDS011;51875;49.994;14.052;2023-02-04T01:19:32;0.20;;;0.20;;
65275;SDS011;51875;49.994;14.052;2023-02-04T01:20:48;0.00;;;0.00;;
65275;SDS011;51875;49.994;14.052;2023-02-04T01:22:04;0.00;;;0.00;;
65275;SDS011;51875;49.994;14.052;2023-02-04T01:23:19;0.10;;;0.10;;
65275;SDS011;51875;49.994;14.052;2023-02-04T01:24:35;0.28;;;0.10;;
65275;SDS011;51875;49.994;14.052;2023-02-04T01:25:50;0.00;;;0.00;;
65275;SDS011;51875;49.994;14.052;2023-02-04T01:27:06;0.10;;;0.10;;
65275;SDS011;51875;49.994;14.052;2023-02-04T01:28:22;0.40;;;0.20;;
65275;SDS011;51875;49.994;14.052;2023-02-04T01:29:37;0.05;;;0.05;;
65275;SDS011;51875;49.994;14.052;2023-02-04T01:30:53;0.17;;;0.17;;
65275;SDS011;51875;49.994;14.052;2023-02-04T01:32:09;0.10;;;0.10;;
65275;SDS011;51875;49.994;14.052;2023-02-04T01:33:24;0.20;;;0.05;;
65275;SDS011;51875;49.994;14.052;2023-02-04T01:34:40;0.10;;;0.10;;
65275;SDS011;51875;49.994;14.052;2023-02-04T01:35:55;0.70;;;0.30;;
65275;SDS011;51875;49.994;14.052;2023-02-04T01:37:11;0.77;;;0.20;;
65275;SDS011;51875;49.994;14.052;2023-02-04T01:38:27;0.28;;;0.10;;
65275;SDS011;51875;49.994;14.052;2023-02-04T01:39:43;0.10;;;0.10;;
65275;SDS011;51875;49.994;14.052;2023-02-04T01:40:58;0.00;;;0.00;;
65275;SDS011;51875;49.994;14.052;2023-02-04T01:42:15;0.05;;;0.05;;
65275;SDS011;51875;49.994;14.052;2023-02-04T01:43:31;0.05;;;0.05;;
65275;SDS011;51875;49.994;14.052;2023-02-04T01:44:47;0.43;;;0.20;;
65275;SDS011;51875;49.994;14.052;2023-02-04T01:46:02;0.00;;;0.00;;
65275;SDS011;51875;49.994;14.052;2023-02-04T01:47:18;0.10;;;0.10;;
65275;SDS011;51875;49.994;14.052;2023-02-04T01:48:35;0.10;;;0.10;;
65275;SDS011;51875;49.994;14.052;2023-02-04T01:49:51;0.80;;;0.10;;
65275;SDS011;51875;49.994;14.052;2023-02-04T01:51:09;0.20;;;0.13;;
65275;SDS011;51875;49.994;14.052;2023-02-04T01:52:30;0.05;;;0.05;;
65275;SDS011;51875;49.994;14.052;2023-02-04T01:53:50;0.10;;;0.10;;
65275;SDS011;51875;49.994;14.052;2023-02-04T01:55:14;0.93;;;0.10;;
65275;SDS011;51875;49.994;14.052;2023-02-04T01:56:31;0.00;;;0.00;;
65275;SDS011;51875;49.994;14.052;2023-02-04T01:57:47;0.10;;;0.10;;
65275;SDS011;51875;49.994;14.052;2023-02-04T01:59:10;0.32;;;0.10;;
65275;SDS011;51875;49.994;14.052;2023-02-04T02:00:29;0.10;;;0.10;;
65275;SDS011;51875;49.994;14.052;2023-02-04T02:01:48;0.10;;;0.10;;
65275;SDS011;51875;49.994;14.052;2023-02-04T02:03:05;0.10;;;0.10;;
65275;SDS011;51875;49.994;14.052;2023-02-04T02:04:34;0.08;;;0.08;;
65275;SDS011;51875;49.994;14.052;2023-02-04T02:05:50;0.10;;;0.10;;
65275;SDS011;51875;49.994;14.052;2023-02-04T02:07:08;0.10;;;0.10;;
65275;SDS011;51875;49.994;14.052;2023-02-04T02:08:25;0.10;;;0.10;;
65275;SDS011;51875;49.994;14.052;2023-02-04T02:09:41;0.10;;;0.10;;
65275;SDS011;51875;49.994;14.052;2023-02-04T02:10:56;0.20;;;0.20;;
65275;SDS011;51875;49.994;14.052;2023-02-04T02:12:12;0.08;;;0.08;;
65275;SDS011;51875;49.994;14.052;2023-02-04T02:13:28;0.20;;;0.20;;
65275;SDS011;51875;49.994;14.052;2023-02-04T02:14:43;0.10;;;0.10;;
65275;SDS011;51875;49.994;14.052;2023-02-04T02:15:59;0.10;;;0.10;;
65275;SDS011;51875;49.994;14.052;2023-02-04T02:17:15;0.10;;;0.10;;
65275;SDS011;51875;49.994;14.052;2023-02-04T02:18:31;0.10;;;0.10;;
65275;SDS011;51875;49.994;14.052;2023-02-04T02:19:46;0.40;;;0.20;;
65275;SDS011;51875;49.994;14.052;2023-02-04T02:21:03;0.40;;;0.30;;
65275;SDS011;51875;49.994;14.052;2023-02-04T02:22:31;1.38;;;0.40;;
65275;SDS011;51875;49.994;14.052;2023-02-04T02:25:44;1.02;;;0.30;;
65275;SDS011;51875;49.994;14.052;2023-02-04T02:27:02;0.32;;;0.32;;
65275;SDS011;51875;49.994;14.052;2023-02-04T02:28:22;0.28;;;0.28;;
65275;SDS011;51875;49.994;14.052;2023-02-04T02:29:39;2.40;;;0.40;;
65275;SDS011;51875;49.994;14.052;2023-02-04T02:30:56;0.32;;;0.30;;
65275;SDS011;51875;49.994;14.052;2023-02-04T02:32:12;0.40;;;0.22;;
65275;SDS011;51875;49.994;14.052;2023-02-04T02:33:28;0.20;;;0.20;;
65275;SDS011;51875;49.994;14.052;2023-02-04T02:34:44;0.30;;;0.30;;
65275;SDS011;51875;49.994;14.052;2023-02-04T02:36:01;0.20;;;0.20;;
65275;SDS011;51875;49.994;14.052;2023-02-04T02:37:16;0.73;;;0.40;;
65275;SDS011;51875;49.994;14.052;2023-02-04T02:38:32;0.73;;;0.30;;
65275;SDS011;51875;49.994;14.052;2023-02-04T02:39:48;0.70;;;0.50;;
65275;SDS011;51875;49.994;14.052;2023-02-04T02:41:04;0.70;;;0.60;;
65275;SDS011;51875;49.994;14.052;2023-02-04T02:42:19;0.73;;;0.60;;
65275;SDS011;51875;49.994;14.052;2023-02-04T02:43:35;1.27;;;0.47;;
65275;SDS011;51875;49.994;14.052;2023-02-04T02:44:52;0.30;;;0.30;;
65275;SDS011;51875;49.994;14.052;2023-02-04T02:46:08;0.40;;;0.40;;
65275;SDS011;51875;49.994;14.052;2023-02-04T02:47:24;0.85;;;0.55;;
65275;SDS011;51875;49.994;14.052;2023-02-04T02:48:40;0.80;;;0.50;;
65275;SDS011;51875;49.994;14.052;2023-02-04T02:49:56;0.47;;;0.47;;
65275;SDS011;51875;49.994;14.052;2023-02-04T02:51:11;0.38;;;0.38;;
65275;SDS011;51875;49.994;14.052;2023-02-04T02:52:27;0.52;;;0.30;;
65275;SDS011;51875;49.994;14.052;2023-02-04T02:53:43;0.80;;;0.68;;
65275;SDS011;51875;49.994;14.052;2023-02-04T02:55:01;0.30;;;0.30;;
65275;SDS011;51875;49.994;14.052;2023-02-04T02:56:17;0.40;;;0.40;;
65275;SDS011;51875;49.994;14.052;2023-02-04T02:57:33;0.85;;;0.55;;
65275;SDS011;51875;49.994;14.052;2023-02-04T02:58:48;0.75;;;0.50;;
65275;SDS011;51875;49.994;14.052;2023-02-04T03:00:21;1.48;;;0.60;;
65275;SDS011;51875;49.994;14.052;2023-02-04T03:01:44;0.60;;;0.47;;
65275;SDS011;51875;49.994;14.052;2023-02-04T03:04:26;1.80;;;0.52;;
65275;SDS011;51875;49.994;14.052;2023-02-04T03:05:45;0.95;;;0.30;;
65275;SDS011;51875;49.994;14.052;2023-02-04T03:07:04;0.88;;;0.40;;
65275;SDS011;51875;49.994;14.052;2023-02-04T03:08:20;0.65;;;0.50;;
65275;SDS011;51875;49.994;14.052;2023-02-04T03:09:36;1.08;;;0.30;;
65275;SDS011;51875;49.994;14.052;2023-02-04T03:10:52;2.35;;;0.60;;
65275;SDS011;51875;49.994;14.052;2023-02-04T03:12:07;3.40;;;0.55;;
65275;SDS011;51875;49.994;14.052;2023-02-04T03:13:23;1.52;;;0.30;;
65275;SDS011;51875;49.994;14.052;2023-02-04T03:14:39;0.90;;;0.60;;
65275;SDS011;51875;49.994;14.052;2023-02-04T03:15:55;0.52;;;0.38;;
65275;SDS011;51875;49.994;14.052;2023-02-04T03:17:12;0.50;;;0.50;;
65275;SDS011;51875;49.994;14.052;2023-02-04T03:18:27;0.40;;;0.25;;
65275;SDS011;51875;49.994;14.052;2023-02-04T03:19:43;0.60;;;0.50;;
65275;SDS011;51875;49.994;14.052;2023-02-04T03:20:59;1.60;;;0.50;;
65275;SDS011;51875;49.994;14.052;2023-02-04T03:22:14;0.57;;;0.52;;
65275;SDS011;51875;49.994;14.052;2023-02-04T03:23:31;0.30;;;0.30;;
65275;SDS011;51875;49.994;14.052;2023-02-04T03:24:47;0.40;;;0.40;;
65275;SDS011;51875;49.994;14.052;2023-02-04T03:26:03;0.98;;;0.50;;
65275;SDS011;51875;49.994;14.052;2023-02-04T03:27:20;1.00;;;0.60;;
65275;SDS011;51875;49.994;14.052;2023-02-04T03:28:39;0.43;;;0.35;;
65275;SDS011;51875;49.994;14.052;2023-02-04T03:29:56;0.30;;;0.30;;
65275;SDS011;51875;49.994;14.052;2023-02-04T03:31:12;0.73;;;0.40;;
65275;SDS011;51875;49.994;14.052;2023-02-04T03:32:27;7.53;;;0.52;;
65275;SDS011;51875;49.994;14.052;2023-02-04T03:33:43;1.15;;;0.68;;
65275;SDS011;51875;49.994;14.052;2023-02-04T03:34:58;0.52;;;0.30;;
65275;SDS011;51875;49.994;14.052;2023-02-04T03:36:15;0.30;;;0.30;;
65275;SDS011;51875;49.994;14.052;2023-02-04T03:37:30;1.23;;;0.57;;
65275;SDS011;51875;49.994;14.052;2023-02-04T03:38:45;0.40;;;0.40;;
65275;SDS011;51875;49.994;14.052;2023-02-04T03:40:01;0.85;;;0.57;;
65275;SDS011;51875;49.994;14.052;2023-02-04T03:41:17;0.98;;;0.52;;
65275;SDS011;51875;49.994;14.052;2023-02-04T03:42:33;0.45;;;0.32;;
65275;SDS011;51875;49.994;14.052;2023-02-04T03:43:49;0.80;;;0.40;;
65275;SDS011;51875;49.994;14.052;2023-02-04T03:45:04;0.30;;;0.30;;
65275;SDS011;51875;49.994;14.052;2023-02-04T03:46:20;0.35;;;0.35;;
65275;SDS011;51875;49.994;14.052;2023-02-04T03:47:37;0.70;;;0.40;;
65275;SDS011;51875;49.994;14.052;2023-02-04T03:48:53;0.88;;;0.40;;
65275;SDS011;51875;49.994;14.052;2023-02-04T03:50:09;0.93;;;0.50;;
65275;SDS011;51875;49.994;14.052;2023-02-04T03:51:27;0.55;;;0.40;;
65275;SDS011;51875;49.994;14.052;2023-02-04T03:52:42;1.33;;;0.55;;
65275;SDS011;51875;49.994;14.052;2023-02-04T03:53:59;0.73;;;0.50;;
65275;SDS011;51875;49.994;14.052;2023-02-04T03:55:15;0.80;;;0.70;;
65275;SDS011;51875;49.994;14.052;2023-02-04T03:56:30;0.65;;;0.60;;
65275;SDS011;51875;49.994;14.052;2023-02-04T03:57:46;0.52;;;0.50;;
65275;SDS011;51875;49.994;14.052;2023-02-04T03:59:01;0.70;;;0.60;;
65275;SDS011;51875;49.994;14.052;2023-02-04T04:00:17;1.75;;;0.55;;
65275;SDS011;51875;49.994;14.052;2023-02-04T04:01:33;1.90;;;0.80;;
65275;SDS011;51875;49.994;14.052;2023-02-04T04:02:49;0.57;;;0.50;;
65275;SDS011;51875;49.994;14.052;2023-02-04T04:04:04;0.40;;;0.40;;
65275;SDS011;51875;49.994;14.052;2023-02-04T04:05:20;0.63;;;0.63;;
65275;SDS011;51875;49.994;14.052;2023-02-04T04:06:36;0.63;;;0.63;;
65275;SDS011;51875;49.994;14.052;2023-02-04T04:07:51;1.48;;;0.75;;
65275;SDS011;51875;49.994;14.052;2023-02-04T04:09:07;1.40;;;0.63;;
65275;SDS011;51875;49.994;14.052;2023-02-04T04:10:23;1.30;;;0.70;;
65275;SDS011;51875;49.994;14.052;2023-02-04T04:11:39;0.93;;;0.75;;
65275;SDS011;51875;49.994;14.052;2023-02-04T04:12:54;1.13;;;0.70;;
65275;SDS011;51875;49.994;14.052;2023-02-04T04:14:10;1.33;;;0.70;;
65275;SDS011;51875;49.994;14.052;2023-02-04T04:15:26;0.88;;;0.63;;
65275;SDS011;51875;49.994;14.052;2023-02-04T04:16:41;1.08;;;0.68;;
65275;SDS011;51875;49.994;14.052;2023-02-04T04:17:57;2.92;;;0.73;;
65275;SDS011;51875;49.994;14.052;2023-02-04T04:19:12;1.48;;;0.95;;
65275;SDS011;51875;49.994;14.052;2023-02-04T04:20:28;1.73;;;1.00;;
65275;SDS011;51875;49.994;14.052;2023-02-04T04:21:44;1.42;;;0.80;;
65275;SDS011;51875;49.994;14.052;2023-02-04T04:22:59;1.63;;;1.17;;
65275;SDS011;51875;49.994;14.052;2023-02-04T04:24:15;1.52;;;0.85;;
65275;SDS011;51875;49.994;14.052;2023-02-04T04:25:31;1.55;;;0.65;;
65275;SDS011;51875;49.994;14.052;2023-02-04T04:26:46;1.55;;;0.73;;
65275;SDS011;51875;49.994;14.052;2023-02-04T04:28:02;1.23;;;1.00;;
65275;SDS011;51875;49.994;14.052;2023-02-04T04:29:18;1.23;;;1.00;;
65275;SDS011;51875;49.994;14.052;2023-02-04T04:30:33;0.93;;;0.70;;
65275;SDS011;51875;49.994;14.052;2023-02-04T04:31:49;1.63;;;1.10;;
65275;SDS011;51875;49.994;14.052;2023-02-04T04:33:04;1.60;;;1.05;;
65275;SDS011;51875;49.994;14.052;2023-02-04T04:34:20;3.45;;;0.90;;
65275;SDS011;51875;49.994;14.052;2023-02-04T04:35:36;1.52;;;1.00;;
65275;SDS011;51875;49.994;14.052;2023-02-04T04:36:51;2.05;;;0.80;;
65275;SDS011;51875;49.994;14.052;2023-02-04T04:38:07;1.50;;;0.90;;
65275;SDS011;51875;49.994;14.052;2023-02-04T04:39:22;0.90;;;0.85;;
65275;SDS011;51875;49.994;14.052;2023-02-04T04:40:38;3.08;;;0.90;;
65275;SDS011;51875;49.994;14.052;2023-02-04T04:41:54;1.00;;;0.90;;
65275;SDS011;51875;49.994;14.052;2023-02-04T04:43:09;1.15;;;0.95;;
65275;SDS011;51875;49.994;14.052;2023-02-04T04:44:25;1.27;;;1.13;;
65275;SDS011;51875;49.994;14.052;2023-02-04T04:45:41;3.40;;;1.30;;
65275;SDS011;51875;49.994;14.052;2023-02-04T04:46:56;1.33;;;0.88;;
65275;SDS011;51875;49.994;14.052;2023-02-04T04:48:12;1.83;;;1.00;;
65275;SDS011;51875;49.994;14.052;2023-02-04T04:49:27;1.42;;;1.10;;
65275;SDS011;51875;49.994;14.052;2023-02-04T04:50:43;1.40;;;1.00;;
65275;SDS011;51875;49.994;14.052;2023-02-04T04:51:59;2.67;;;1.30;;
65275;SDS011;51875;49.994;14.052;2023-02-04T04:53:14;2.40;;;1.40;;
65275;SDS011;51875;49.994;14.052;2023-02-04T04:54:30;2.75;;;1.50;;
65275;SDS011;51875;49.994;14.052;2023-02-04T04:55:46;2.70;;;1.25;;
65275;SDS011;51875;49.994;14.052;2023-02-04T04:57:01;2.65;;;1.55;;
65275;SDS011;51875;49.994;14.052;2023-02-04T04:58:17;2.65;;;1.42;;
65275;SDS011;51875;49.994;14.052;2023-02-04T04:59:32;1.20;;;1.00;;
65275;SDS011;51875;49.994;14.052;2023-02-04T05:00:48;1.67;;;1.17;;
65275;SDS011;51875;49.994;14.052;2023-02-04T05:02:04;3.33;;;1.30;;
65275;SDS011;51875;49.994;14.052;2023-02-04T05:03:19;1.98;;;1.23;;
65275;SDS011;51875;49.994;14.052;2023-02-04T05:04:35;2.28;;;1.40;;
65275;SDS011;51875;49.994;14.052;2023-02-04T05:05:51;2.83;;;1.27;;
65275;SDS011;51875;49.994;14.052;2023-02-04T05:07:06;1.70;;;1.38;;
65275;SDS011;51875;49.994;14.052;2023-02-04T05:08:22;1.30;;;1.05;;
65275;SDS011;51875;49.994;14.052;2023-02-04T05:09:37;1.80;;;1.30;;
65275;SDS011;51875;49.994;14.052;2023-02-04T05:10:53;3.70;;;1.75;;
65275;SDS011;51875;49.994;14.052;2023-02-04T05:12:09;2.80;;;1.80;;
65275;SDS011;51875;49.994;14.052;2023-02-04T05:13:24;3.30;;;2.03;;
65275;SDS011;51875;49.994;14.052;2023-02-04T05:14:40;2.58;;;1.60;;
65275;SDS011;51875;49.994;14.052;2023-02-04T05:15:56;2.90;;;2.05;;
65275;SDS011;51875;49.994;14.052;2023-02-04T05:17:11;4.32;;;1.98;;
65275;SDS011;51875;49.994;14.052;2023-02-04T05:18:27;3.97;;;2.13;;
65275;SDS011;51875;49.994;14.052;2023-02-04T05:19:42;3.50;;;1.95;;
65275;SDS011;51875;49.994;14.052;2023-02-04T05:20:58;2.30;;;1.60;;
65275;SDS011;51875;49.994;14.052;2023-02-04T05:22:14;1.75;;;1.33;;
65275;SDS011;51875;49.994;14.052;2023-02-04T05:23:29;3.92;;;1.95;;
65275;SDS011;51875;49.994;14.052;2023-02-04T05:24:45;2.00;;;1.35;;
65275;SDS011;51875;49.994;14.052;2023-02-04T05:26:01;3.50;;;1.80;;
65275;SDS011;51875;49.994;14.052;2023-02-04T05:27:16;1.88;;;1.38;;
65275;SDS011;51875;49.994;14.052;2023-02-04T05:28:32;3.40;;;1.80;;
65275;SDS011;51875;49.994;14.052;2023-02-04T05:29:47;1.65;;;1.42;;
65275;SDS011;51875;49.994;14.052;2023-02-04T05:31:03;2.97;;;1.98;;
65275;SDS011;51875;49.994;14.052;2023-02-04T05:32:19;2.65;;;2.15;;
65275;SDS011;51875;49.994;14.052;2023-02-04T05:33:34;2.33;;;1.83;;
65275;SDS011;51875;49.994;14.052;2023-02-04T05:34:50;3.85;;;2.25;;
65275;SDS011;51875;49.994;14.052;2023-02-04T05:36:06;1.80;;;1.40;;
65275;SDS011;51875;49.994;14.052;2023-02-04T05:37:21;2.45;;;1.52;;
65275;SDS011;51875;49.994;14.052;2023-02-04T05:38:37;2.65;;;1.85;;
65275;SDS011;51875;49.994;14.052;2023-02-04T05:39:52;2.95;;;2.00;;
65275;SDS011;51875;49.994;14.052;2023-02-04T05:41:08;1.75;;;1.35;;
65275;SDS011;51875;49.994;14.052;2023-02-04T05:42:24;2.55;;;1.80;;
65275;SDS011;51875;49.994;14.052;2023-02-04T05:43:39;3.95;;;1.77;;
65275;SDS011;51875;49.994;14.052;2023-02-04T05:44:55;2.50;;;1.50;;
65275;SDS011;51875;49.994;14.052;2023-02-04T05:46:10;3.50;;;2.00;;
65275;SDS011;51875;49.994;14.052;2023-02-04T05:47:26;2.30;;;1.55;;
65275;SDS011;51875;49.994;14.052;2023-02-04T05:48:41;2.60;;;1.58;;
65275;SDS011;51875;49.994;14.052;2023-02-04T05:49:57;1.77;;;1.33;;
65275;SDS011;51875;49.994;14.052;2023-02-04T05:51:13;2.58;;;1.50;;
65275;SDS011;51875;49.994;14.052;2023-02-04T05:52:28;1.85;;;1.35;;
65275;SDS011;51875;49.994;14.052;2023-02-04T05:53:44;2.42;;;1.98;;
65275;SDS011;51875;49.994;14.052;2023-02-04T05:54:59;2.47;;;1.63;;
65275;SDS011;51875;49.994;14.052;2023-02-04T05:56:15;3.97;;;1.60;;
65275;SDS011;51875;49.994;14.052;2023-02-04T05:57:31;2.42;;;1.80;;
65275;SDS011;51875;49.994;14.052;2023-02-04T05:58:46;2.88;;;1.73;;
65275;SDS011;51875;49.994;14.052;2023-02-04T06:00:02;2.47;;;1.70;;
65275;SDS011;51875;49.994;14.052;2023-02-04T06:01:18;1.77;;;1.52;;
65275;SDS011;51875;49.994;14.052;2023-02-04T06:02:34;2.83;;;1.63;;
65275;SDS011;51875;49.994;14.052;2023-02-04T06:03:49;3.00;;;1.40;;
65275;SDS011;51875;49.994;14.052;2023-02-04T06:05:05;3.70;;;1.77;;
65275;SDS011;51875;49.994;14.052;2023-02-04T06:06:21;3.42;;;1.40;;
65275;SDS011;51875;49.994;14.052;2023-02-04T06:07:36;3.33;;;1.88;;
65275;SDS011;51875;49.994;14.052;2023-02-04T06:08:52;3.58;;;2.05;;
65275;SDS011;51875;49.994;14.052;2023-02-04T06:10:08;3.15;;;1.95;;
65275;SDS011;51875;49.994;14.052;2023-02-04T06:11:24;2.97;;;1.88;;
65275;SDS011;51875;49.994;14.052;2023-02-04T06:12:40;2.67;;;1.60;;
65275;SDS011;51875;49.994;14.052;2023-02-04T06:13:56;2.40;;;1.90;;
65275;SDS011;51875;49.994;14.052;2023-02-04T06:15:11;2.30;;;1.90;;
65275;SDS011;51875;49.994;14.052;2023-02-04T06:16:27;2.25;;;1.33;;
65275;SDS011;51875;49.994;14.052;2023-02-04T06:17:42;3.58;;;2.13;;
65275;SDS011;51875;49.994;14.052;2023-02-04T06:18:58;2.25;;;1.65;;
65275;SDS011;51875;49.994;14.052;2023-02-04T06:20:14;1.63;;;1.40;;
65275;SDS011;51875;49.994;14.052;2023-02-04T06:21:29;3.08;;;1.98;;
65275;SDS011;51875;49.994;14.052;2023-02-04T06:22:45;2.90;;;2.15;;
65275;SDS011;51875;49.994;14.052;2023-02-04T06:24:01;3.33;;;1.95;;
65275;SDS011;51875;49.994;14.052;2023-02-04T06:25:17;4.40;;;2.17;;
65275;SDS011;51875;49.994;14.052;2023-02-04T06:26:33;2.10;;;1.65;;
65275;SDS011;51875;49.994;14.052;2023-02-04T06:27:48;3.47;;;2.03;;
65275;SDS011;51875;49.994;14.052;2023-02-04T06:29:04;3.45;;;2.38;;
65275;SDS011;51875;49.994;14.052;2023-02-04T06:30:20;2.90;;;2.05;;
65275;SDS011;51875;49.994;14.052;2023-02-04T06:31:35;2.88;;;2.00;;
65275;SDS011;51875;49.994;14.052;2023-02-04T06:32:53;2.40;;;1.70;;
65275;SDS011;51875;49.994;14.052;2023-02-04T06:34:09;3.00;;;2.17;;
65275;SDS011;51875;49.994;14.052;2023-02-04T06:35:24;3.42;;;2.25;;
65275;SDS011;51875;49.994;14.052;2023-02-04T06:36:40;3.05;;;1.83;;
65275;SDS011;51875;49.994;14.052;2023-02-04T06:37:55;3.17;;;2.30;;
65275;SDS011;51875;49.994;14.052;2023-02-04T06:39:11;3.63;;;2.60;;
65275;SDS011;51875;49.994;14.052;2023-02-04T06:40:26;4.78;;;2.30;;
65275;SDS011;51875;49.994;14.052;2023-02-04T06:41:42;3.50;;;2.55;;
65275;SDS011;51875;49.994;14.052;2023-02-04T06:42:58;3.38;;;2.10;;
65275;SDS011;51875;49.994;14.052;2023-02-04T06:44:13;2.72;;;1.83;;
65275;SDS011;51875;49.994;14.052;2023-02-04T06:45:29;4.72;;;2.47;;
65275;SDS011;51875;49.994;14.052;2023-02-04T06:46:44;3.63;;;2.17;;
65275;SDS011;51875;49.994;14.052;2023-02-04T06:48:00;3.83;;;2.60;;
65275;SDS011;51875;49.994;14.052;2023-02-04T06:49:16;2.50;;;2.03;;
65275;SDS011;51875;49.994;14.052;2023-02-04T06:50:31;3.55;;;2.30;;
65275;SDS011;51875;49.994;14.052;2023-02-04T06:51:47;4.20;;;2.63;;
65275;SDS011;51875;49.994;14.052;2023-02-04T06:53:03;4.65;;;2.25;;
65275;SDS011;51875;49.994;14.052;2023-02-04T06:54:19;5.68;;;2.17;;
65275;SDS011;51875;49.994;14.052;2023-02-04T06:55:35;3.10;;;2.25;;
65275;SDS011;51875;49.994;14.052;2023-02-04T06:56:50;2.63;;;2.15;;
65275;SDS011;51875;49.994;14.052;2023-02-04T06:58:06;5.57;;;2.25;;
65275;SDS011;51875;49.994;14.052;2023-02-04T06:59:22;2.90;;;1.92;;
65275;SDS011;51875;49.994;14.052;2023-02-04T07:00:40;4.43;;;2.25;;
65275;SDS011;51875;49.994;14.052;2023-02-04T07:01:55;3.78;;;2.10;;
65275;SDS011;51875;49.994;14.052;2023-02-04T07:03:11;3.85;;;2.20;;
65275;SDS011;51875;49.994;14.052;2023-02-04T07:04:26;4.85;;;2.53;;
65275;SDS011;51875;49.994;14.052;2023-02-04T07:05:42;2.80;;;2.20;;
65275;SDS011;51875;49.994;14.052;2023-02-04T07:06:58;2.53;;;2.00;;
65275;SDS011;51875;49.994;14.052;2023-02-04T07:08:13;4.25;;;2.20;;
65275;SDS011;51875;49.994;14.052;2023-02-04T07:09:29;4.72;;;2.17;;
65275;SDS011;51875;49.994;14.052;2023-02-04T07:10:44;3.20;;;2.05;;
65275;SDS011;51875;49.994;14.052;2023-02-04T07:12:00;3.25;;;1.90;;
65275;SDS011;51875;49.994;14.052;2023-02-04T07:13:16;2.95;;;2.00;;
65275;SDS011;51875;49.994;14.052;2023-02-04T07:14:31;2.92;;;1.80;;
65275;SDS011;51875;49.994;14.052;2023-02-04T07:15:47;1.83;;;1.48;;
65275;SDS011;51875;49.994;14.052;2023-02-04T07:17:04;2.45;;;1.38;;
65275;SDS011;51875;49.994;14.052;2023-02-04T07:18:19;4.88;;;1.35;;
65275;SDS011;51875;49.994;14.052;2023-02-04T07:19:35;2.78;;;1.70;;
65275;SDS011;51875;49.994;14.052;2023-02-04T07:20:51;2.88;;;1.40;;
65275;SDS011;51875;49.994;14.052;2023-02-04T07:22:06;2.35;;;1.52;;
65275;SDS011;51875;49.994;14.052;2023-02-04T07:23:22;4.53;;;1.90;;
65275;SDS011;51875;49.994;14.052;2023-02-04T07:24:39;3.78;;;1.65;;
65275;SDS011;51875;49.994;14.052;2023-02-04T07:25:54;2.80;;;1.38;;
65275;SDS011;51875;49.994;14.052;2023-02-04T07:27:11;2.35;;;1.50;;
65275;SDS011;51875;49.994;14.052;2023-02-04T07:28:27;2.10;;;1.08;;
65275;SDS011;51875;49.994;14.052;2023-02-04T07:29:42;1.42;;;1.10;;
65275;SDS011;51875;49.994;14.052;2023-02-04T07:30:58;2.03;;;1.25;;
65275;SDS011;51875;49.994;14.052;2023-02-04T07:32:14;2.25;;;1.40;;
65275;SDS011;51875;49.994;14.052;2023-02-04T07:33:29;2.70;;;1.15;;
65275;SDS011;51875;49.994;14.052;2023-02-04T07:34:45;1.60;;;1.15;;